LOWI/INN METAR and TAF weather

Enter ICAO airport designator
Station Type Date Time Source
LOWI METAR 2022/01/27 22:20 UTC NOAA

LOWI 272220Z AUTO VRB02KT 9999 FEW060 BKN090 M01/M04 Q1024


Station Type Date Time Source
LOWI Decoded METAR 2022/01/27 22:20 UTC NOAA

Innsbruck-Flughafen, Austria (LOWI) 47-16N 011-21E 593M
Jan 27, 2022 - 05:20 PM EST / 2022.01.27 2220 UTC
Wind: Variable at 2 MPH (2 KT):0
Visibility: greater than 7 mile(s):0
Sky conditions: mostly cloudy
Temperature: 30 F (-1 C)
Dew Point: 24 F (-4 C)
Relative Humidity: 80%
Pressure (altimeter): 30.24 in. Hg (1024 hPa)
ob: LOWI 272220Z AUTO VRB02KT 9999 FEW060 BKN090 M01/M04 Q1024
cycle: 22

Station Type Date Time Source
LOWI TAF 2022/01/27 18:20 UTC NOAA

TAF LOWI 271715Z 2718/2818 27003KT CAVOK TX04/2814Z TNM02/2723Z
BECMG 2723/2801 6000 -SN SCT030 BKN050
TEMPO 2802/2805 2000 SN VV010
TEMPO 2808/2816 28015G25KT NSW

Example: see airport list